Terminal Aerodrome Forecast
Issued by NWS

Home | Current Version | Previous Version | Text Only | Print | Product List | Glossary On
Versions: 1 2 3 4 5 6 7 8 9 10 11 12 13 14 15 16 17 18 19 20 21 22 23 24 25 26 27 28 29 30 31 32 33 34 35 36 37 38 39
000
FTUS43 KGRB 290331 AAA
TAFRHI
TAF AMD
KRHI 290331Z 2904/2924 19006G14KT P6SM SCT008 OVC050
      TEMPO 2904/2907 5SM -RA BR BKN008
     FM290700 VRB03KT 3SM BR SCT002 OVC006
      TEMPO 2909/2913 1SM BR BKN002
     FM291500 19003KT 5SM BR OVC015
     FM292100 17005KT P6SM FEW015 BKN050=

USA.gov is the U.S. government's official web portal to all federal, state and local government web resources and services.